sensor_id;sensor_type;location;lat;lon;timestamp;P1;durP1;ratioP1;P2;durP2;ratioP2
65189;SDS011;51777;53.570;9.984;2024-02-15T00:00:14;11.63;;;6.82;;
65189;SDS011;51777;53.570;9.984;2024-02-15T00:02:42;17.60;;;9.70;;
65189;SDS011;51777;53.570;9.984;2024-02-15T00:05:09;19.73;;;12.20;;
65189;SDS011;51777;53.570;9.984;2024-02-15T00:07:35;20.67;;;12.10;;
65189;SDS011;51777;53.570;9.984;2024-02-15T00:10:01;16.50;;;9.25;;
65189;SDS011;51777;53.570;9.984;2024-02-15T00:12:28;9.68;;;6.38;;
65189;SDS011;51777;53.570;9.984;2024-02-15T00:14:55;23.05;;;12.68;;
65189;SDS011;51777;53.570;9.984;2024-02-15T00:17:23;21.08;;;11.55;;
65189;SDS011;51777;53.570;9.984;2024-02-15T00:19:50;22.48;;;11.02;;
65189;SDS011;51777;53.570;9.984;2024-02-15T00:22:16;20.80;;;11.05;;
65189;SDS011;51777;53.570;9.984;2024-02-15T00:24:41;16.92;;;10.63;;
65189;SDS011;51777;53.570;9.984;2024-02-15T00:27:07;23.00;;;13.55;;
65189;SDS011;51777;53.570;9.984;2024-02-15T00:29:36;23.05;;;13.93;;
65189;SDS011;51777;53.570;9.984;2024-02-15T00:32:01;17.42;;;9.73;;
65189;SDS011;51777;53.570;9.984;2024-02-15T00:34:28;23.45;;;13.80;;
65189;SDS011;51777;53.570;9.984;2024-02-15T00:36:54;22.00;;;12.90;;
65189;SDS011;51777;53.570;9.984;2024-02-15T00:39:19;23.63;;;14.13;;
65189;SDS011;51777;53.570;9.984;2024-02-15T00:41:45;22.80;;;14.05;;
65189;SDS011;51777;53.570;9.984;2024-02-15T00:44:11;28.15;;;15.90;;
65189;SDS011;51777;53.570;9.984;2024-02-15T00:46:37;24.90;;;13.85;;
65189;SDS011;51777;53.570;9.984;2024-02-15T00:49:03;28.00;;;15.32;;
65189;SDS011;51777;53.570;9.984;2024-02-15T00:51:32;26.08;;;14.02;;
65189;SDS011;51777;53.570;9.984;2024-02-15T00:54:01;23.50;;;13.98;;
65189;SDS011;51777;53.570;9.984;2024-02-15T00:56:27;25.45;;;15.98;;
65189;SDS011;51777;53.570;9.984;2024-02-15T00:58:54;30.50;;;16.02;;
65189;SDS011;51777;53.570;9.984;2024-02-15T01:01:20;20.35;;;12.10;;
65189;SDS011;51777;53.570;9.984;2024-02-15T01:03:46;24.15;;;14.25;;
65189;SDS011;51777;53.570;9.984;2024-02-15T01:06:11;24.45;;;15.43;;
65189;SDS011;51777;53.570;9.984;2024-02-15T01:08:37;30.77;;;17.30;;
65189;SDS011;51777;53.570;9.984;2024-02-15T01:11:04;26.15;;;16.65;;
65189;SDS011;51777;53.570;9.984;2024-02-15T01:13:29;16.83;;;9.88;;
65189;SDS011;51777;53.570;9.984;2024-02-15T01:15:55;30.20;;;17.08;;
65189;SDS011;51777;53.570;9.984;2024-02-15T01:18:21;26.17;;;16.58;;
65189;SDS011;51777;53.570;9.984;2024-02-15T01:20:50;29.15;;;17.83;;
65189;SDS011;51777;53.570;9.984;2024-02-15T01:23:17;27.27;;;16.65;;
65189;SDS011;51777;53.570;9.984;2024-02-15T01:25:42;27.67;;;17.20;;
65189;SDS011;51777;53.570;9.984;2024-02-15T01:28:08;28.23;;;17.17;;
65189;SDS011;51777;53.570;9.984;2024-02-15T01:30:33;27.75;;;16.55;;
65189;SDS011;51777;53.570;9.984;2024-02-15T01:32:59;26.67;;;15.55;;
65189;SDS011;51777;53.570;9.984;2024-02-15T01:35:25;11.57;;;7.72;;
65189;SDS011;51777;53.570;9.984;2024-02-15T01:37:50;24.73;;;12.57;;
65189;SDS011;51777;53.570;9.984;2024-02-15T01:40:16;26.17;;;16.42;;
65189;SDS011;51777;53.570;9.984;2024-02-15T01:42:42;26.48;;;15.20;;
65189;SDS011;51777;53.570;9.984;2024-02-15T01:45:09;16.00;;;10.07;;
65189;SDS011;51777;53.570;9.984;2024-02-15T01:47:36;22.77;;;12.75;;
65189;SDS011;51777;53.570;9.984;2024-02-15T01:50:02;17.65;;;11.20;;
65189;SDS011;51777;53.570;9.984;2024-02-15T01:52:28;20.13;;;12.75;;
65189;SDS011;51777;53.570;9.984;2024-02-15T01:54:54;12.25;;;7.93;;
65189;SDS011;51777;53.570;9.984;2024-02-15T01:57:19;22.40;;;13.65;;
65189;SDS011;51777;53.570;9.984;2024-02-15T01:59:51;26.83;;;16.30;;
65189;SDS011;51777;53.570;9.984;2024-02-15T02:02:17;18.17;;;10.68;;
65189;SDS011;51777;53.570;9.984;2024-02-15T02:04:45;18.58;;;10.40;;
65189;SDS011;51777;53.570;9.984;2024-02-15T02:07:11;23.80;;;14.68;;
65189;SDS011;51777;53.570;9.984;2024-02-15T02:09:36;24.08;;;12.57;;
65189;SDS011;51777;53.570;9.984;2024-02-15T02:12:02;28.77;;;17.00;;
65189;SDS011;51777;53.570;9.984;2024-02-15T02:14:28;29.05;;;16.25;;
65189;SDS011;51777;53.570;9.984;2024-02-15T02:16:54;29.92;;;17.05;;
65189;SDS011;51777;53.570;9.984;2024-02-15T02:19:20;27.48;;;16.52;;
65189;SDS011;51777;53.570;9.984;2024-02-15T02:21:45;29.10;;;14.20;;
65189;SDS011;51777;53.570;9.984;2024-02-15T02:24:19;34.70;;;16.58;;
65189;SDS011;51777;53.570;9.984;2024-02-15T02:26:47;31.33;;;16.80;;
65189;SDS011;51777;53.570;9.984;2024-02-15T02:29:13;32.58;;;18.08;;
65189;SDS011;51777;53.570;9.984;2024-02-15T02:31:39;30.88;;;17.65;;
65189;SDS011;51777;53.570;9.984;2024-02-15T02:34:05;32.25;;;16.75;;
65189;SDS011;51777;53.570;9.984;2024-02-15T02:36:32;30.38;;;15.95;;
65189;SDS011;51777;53.570;9.984;2024-02-15T02:38:58;27.13;;;14.75;;
65189;SDS011;51777;53.570;9.984;2024-02-15T02:41:26;27.45;;;16.13;;
65189;SDS011;51777;53.570;9.984;2024-02-15T02:43:53;29.13;;;16.17;;
65189;SDS011;51777;53.570;9.984;2024-02-15T02:46:19;29.63;;;16.13;;
65189;SDS011;51777;53.570;9.984;2024-02-15T02:48:45;30.85;;;16.88;;
65189;SDS011;51777;53.570;9.984;2024-02-15T02:51:10;28.45;;;17.42;;
65189;SDS011;51777;53.570;9.984;2024-02-15T02:53:36;31.52;;;17.70;;
65189;SDS011;51777;53.570;9.984;2024-02-15T02:56:01;30.50;;;17.85;;
65189;SDS011;51777;53.570;9.984;2024-02-15T02:58:27;28.10;;;16.35;;
65189;SDS011;51777;53.570;9.984;2024-02-15T03:00:53;28.13;;;16.30;;
65189;SDS011;51777;53.570;9.984;2024-02-15T03:03:20;32.55;;;17.50;;
65189;SDS011;51777;53.570;9.984;2024-02-15T03:05:49;25.95;;;15.38;;
65189;SDS011;51777;53.570;9.984;2024-02-15T03:08:15;20.13;;;12.07;;
65189;SDS011;51777;53.570;9.984;2024-02-15T03:10:42;24.67;;;13.48;;
65189;SDS011;51777;53.570;9.984;2024-02-15T03:13:09;31.23;;;15.60;;
65189;SDS011;51777;53.570;9.984;2024-02-15T03:15:35;27.92;;;15.93;;
65189;SDS011;51777;53.570;9.984;2024-02-15T03:18:01;26.83;;;14.07;;
65189;SDS011;51777;53.570;9.984;2024-02-15T03:20:31;29.35;;;15.60;;
65189;SDS011;51777;53.570;9.984;2024-02-15T03:22:59;23.60;;;13.18;;
65189;SDS011;51777;53.570;9.984;2024-02-15T03:25:26;17.58;;;10.82;;
65189;SDS011;51777;53.570;9.984;2024-02-15T03:27:54;22.70;;;13.82;;
65189;SDS011;51777;53.570;9.984;2024-02-15T03:30:21;16.85;;;9.68;;
65189;SDS011;51777;53.570;9.984;2024-02-15T03:32:49;21.73;;;13.18;;
65189;SDS011;51777;53.570;9.984;2024-02-15T03:35:16;16.55;;;9.27;;
65189;SDS011;51777;53.570;9.984;2024-02-15T03:37:42;14.60;;;9.05;;
65189;SDS011;51777;53.570;9.984;2024-02-15T03:40:08;15.48;;;9.77;;
65189;SDS011;51777;53.570;9.984;2024-02-15T03:42:34;23.13;;;12.57;;
65189;SDS011;51777;53.570;9.984;2024-02-15T03:45:05;17.27;;;8.77;;
65189;SDS011;51777;53.570;9.984;2024-02-15T03:47:32;20.58;;;12.43;;
65189;SDS011;51777;53.570;9.984;2024-02-15T03:49:58;23.38;;;13.00;;
65189;SDS011;51777;53.570;9.984;2024-02-15T03:52:24;24.23;;;12.35;;
65189;SDS011;51777;53.570;9.984;2024-02-15T03:54:50;19.25;;;10.75;;
65189;SDS011;51777;53.570;9.984;2024-02-15T03:57:15;21.80;;;12.00;;
65189;SDS011;51777;53.570;9.984;2024-02-15T03:59:42;21.42;;;11.55;;
65189;SDS011;51777;53.570;9.984;2024-02-15T04:02:07;27.15;;;14.23;;
65189;SDS011;51777;53.570;9.984;2024-02-15T04:04:39;27.85;;;15.02;;
65189;SDS011;51777;53.570;9.984;2024-02-15T04:07:07;28.48;;;14.95;;
65189;SDS011;51777;53.570;9.984;2024-02-15T04:12:04;31.05;;;15.57;;
65189;SDS011;51777;53.570;9.984;2024-02-15T04:14:32;34.58;;;16.17;;
65189;SDS011;51777;53.570;9.984;2024-02-15T04:16:59;35.45;;;16.20;;
65189;SDS011;51777;53.570;9.984;2024-02-15T04:19:25;32.60;;;15.95;;
65189;SDS011;51777;53.570;9.984;2024-02-15T04:21:50;34.22;;;16.52;;
65189;SDS011;51777;53.570;9.984;2024-02-15T04:24:16;33.90;;;17.15;;
65189;SDS011;51777;53.570;9.984;2024-02-15T04:26:41;39.55;;;17.95;;
65189;SDS011;51777;53.570;9.984;2024-02-15T04:29:07;33.83;;;16.50;;
65189;SDS011;51777;53.570;9.984;2024-02-15T04:31:34;32.50;;;16.88;;
65189;SDS011;51777;53.570;9.984;2024-02-15T04:34:02;24.13;;;13.98;;
65189;SDS011;51777;53.570;9.984;2024-02-15T04:36:28;30.23;;;15.88;;
65189;SDS011;51777;53.570;9.984;2024-02-15T04:38:58;31.58;;;16.25;;
65189;SDS011;51777;53.570;9.984;2024-02-15T04:41:24;34.92;;;16.88;;
65189;SDS011;51777;53.570;9.984;2024-02-15T04:43:50;21.42;;;10.00;;
65189;SDS011;51777;53.570;9.984;2024-02-15T04:46:17;27.27;;;13.65;;
65189;SDS011;51777;53.570;9.984;2024-02-15T04:48:45;16.90;;;8.93;;
65189;SDS011;51777;53.570;9.984;2024-02-15T04:51:11;34.88;;;17.83;;
65189;SDS011;51777;53.570;9.984;2024-02-15T04:53:36;28.20;;;14.68;;
65189;SDS011;51777;53.570;9.984;2024-02-15T04:56:03;34.13;;;17.23;;
65189;SDS011;51777;53.570;9.984;2024-02-15T04:58:36;32.10;;;15.73;;
65189;SDS011;51777;53.570;9.984;2024-02-15T05:01:02;21.00;;;10.13;;
65189;SDS011;51777;53.570;9.984;2024-02-15T05:03:30;31.58;;;16.10;;
65189;SDS011;51777;53.570;9.984;2024-02-15T05:05:59;32.55;;;16.42;;
65189;SDS011;51777;53.570;9.984;2024-02-15T05:08:25;29.63;;;14.48;;
65189;SDS011;51777;53.570;9.984;2024-02-15T05:10:51;34.30;;;17.27;;
65189;SDS011;51777;53.570;9.984;2024-02-15T05:13:21;35.38;;;16.27;;
65189;SDS011;51777;53.570;9.984;2024-02-15T05:15:49;38.05;;;19.15;;
65189;SDS011;51777;53.570;9.984;2024-02-15T05:18:14;36.95;;;17.70;;
65189;SDS011;51777;53.570;9.984;2024-02-15T05:20:40;35.83;;;17.63;;
65189;SDS011;51777;53.570;9.984;2024-02-15T05:23:05;41.85;;;19.65;;
65189;SDS011;51777;53.570;9.984;2024-02-15T05:25:31;39.35;;;19.20;;
65189;SDS011;51777;53.570;9.984;2024-02-15T05:27:58;38.95;;;19.30;;
65189;SDS011;51777;53.570;9.984;2024-02-15T05:30:24;32.38;;;16.25;;
65189;SDS011;51777;53.570;9.984;2024-02-15T05:32:50;35.05;;;17.98;;
65189;SDS011;51777;53.570;9.984;2024-02-15T05:35:17;34.25;;;17.33;;
65189;SDS011;51777;53.570;9.984;2024-02-15T05:37:43;29.90;;;15.60;;
65189;SDS011;51777;53.570;9.984;2024-02-15T05:40:09;35.05;;;17.30;;
65189;SDS011;51777;53.570;9.984;2024-02-15T05:42:40;28.42;;;14.02;;
65189;SDS011;51777;53.570;9.984;2024-02-15T05:45:26;34.80;;;17.52;;
65189;SDS011;51777;53.570;9.984;2024-02-15T05:47:58;34.55;;;17.13;;
65189;SDS011;51777;53.570;9.984;2024-02-15T05:50:24;37.22;;;18.38;;
65189;SDS011;51777;53.570;9.984;2024-02-15T05:52:52;34.70;;;17.00;;
65189;SDS011;51777;53.570;9.984;2024-02-15T05:55:19;25.65;;;12.90;;
65189;SDS011;51777;53.570;9.984;2024-02-15T05:57:48;30.00;;;13.07;;
65189;SDS011;51777;53.570;9.984;2024-02-15T06:00:14;39.40;;;18.05;;
65189;SDS011;51777;53.570;9.984;2024-02-15T06:02:40;38.08;;;18.20;;
65189;SDS011;51777;53.570;9.984;2024-02-15T06:05:05;33.33;;;16.40;;
65189;SDS011;51777;53.570;9.984;2024-02-15T06:07:31;32.05;;;16.95;;
65189;SDS011;51777;53.570;9.984;2024-02-15T06:09:59;39.25;;;17.33;;
65189;SDS011;51777;53.570;9.984;2024-02-15T06:12:29;43.63;;;20.10;;
65189;SDS011;51777;53.570;9.984;2024-02-15T06:14:55;44.85;;;19.17;;
65189;SDS011;51777;53.570;9.984;2024-02-15T06:17:21;24.23;;;10.85;;
65189;SDS011;51777;53.570;9.984;2024-02-15T06:19:46;40.08;;;18.05;;
65189;SDS011;51777;53.570;9.984;2024-02-15T06:22:11;37.10;;;18.15;;
65189;SDS011;51777;53.570;9.984;2024-02-15T06:24:37;34.28;;;15.57;;
65189;SDS011;51777;53.570;9.984;2024-02-15T06:27:04;34.05;;;16.83;;
65189;SDS011;51777;53.570;9.984;2024-02-15T06:32:20;35.80;;;16.65;;
65189;SDS011;51777;53.570;9.984;2024-02-15T06:35:04;39.53;;;18.70;;
65189;SDS011;51777;53.570;9.984;2024-02-15T06:37:48;47.63;;;18.90;;
65189;SDS011;51777;53.570;9.984;2024-02-15T06:40:32;44.40;;;19.08;;
65189;SDS011;51777;53.570;9.984;2024-02-15T06:42:58;45.63;;;19.17;;
65189;SDS011;51777;53.570;9.984;2024-02-15T06:45:23;42.35;;;19.63;;
65189;SDS011;51777;53.570;9.984;2024-02-15T06:47:49;44.70;;;19.08;;
65189;SDS011;51777;53.570;9.984;2024-02-15T06:50:15;42.08;;;19.58;;
65189;SDS011;51777;53.570;9.984;2024-02-15T06:52:42;46.08;;;19.55;;
65189;SDS011;51777;53.570;9.984;2024-02-15T06:55:08;48.67;;;20.90;;
65189;SDS011;51777;53.570;9.984;2024-02-15T06:57:36;53.38;;;21.20;;
65189;SDS011;51777;53.570;9.984;2024-02-15T07:00:09;48.53;;;20.25;;
65189;SDS011;51777;53.570;9.984;2024-02-15T07:02:56;41.35;;;18.35;;
65189;SDS011;51777;53.570;9.984;2024-02-15T07:05:22;45.13;;;20.77;;
65189;SDS011;51777;53.570;9.984;2024-02-15T07:07:48;50.45;;;21.50;;
65189;SDS011;51777;53.570;9.984;2024-02-15T07:10:14;40.03;;;16.35;;
65189;SDS011;51777;53.570;9.984;2024-02-15T07:12:41;46.53;;;19.42;;
65189;SDS011;51777;53.570;9.984;2024-02-15T07:15:09;45.88;;;19.60;;
65189;SDS011;51777;53.570;9.984;2024-02-15T07:17:35;36.22;;;15.38;;
65189;SDS011;51777;53.570;9.984;2024-02-15T07:20:02;22.55;;;11.40;;
65189;SDS011;51777;53.570;9.984;2024-02-15T07:22:30;34.88;;;16.02;;
65189;SDS011;51777;53.570;9.984;2024-02-15T07:24:56;31.15;;;14.38;;
65189;SDS011;51777;53.570;9.984;2024-02-15T07:27:22;39.28;;;18.25;;
65189;SDS011;51777;53.570;9.984;2024-02-15T07:29:50;39.60;;;17.40;;
65189;SDS011;51777;53.570;9.984;2024-02-15T07:32:16;34.80;;;14.00;;
65189;SDS011;51777;53.570;9.984;2024-02-15T07:34:43;39.25;;;16.27;;
65189;SDS011;51777;53.570;9.984;2024-02-15T07:37:10;28.20;;;11.80;;
65189;SDS011;51777;53.570;9.984;2024-02-15T07:39:37;41.40;;;15.75;;
65189;SDS011;51777;53.570;9.984;2024-02-15T07:42:03;32.10;;;16.70;;
65189;SDS011;51777;53.570;9.984;2024-02-15T07:44:33;32.47;;;16.38;;
65189;SDS011;51777;53.570;9.984;2024-02-15T07:47:02;36.58;;;15.88;;
65189;SDS011;51777;53.570;9.984;2024-02-15T07:49:28;28.80;;;14.15;;
65189;SDS011;51777;53.570;9.984;2024-02-15T07:51:53;24.77;;;10.73;;
65189;SDS011;51777;53.570;9.984;2024-02-15T07:54:19;15.40;;;8.02;;
65189;SDS011;51777;53.570;9.984;2024-02-15T07:56:48;30.67;;;15.27;;
65189;SDS011;51777;53.570;9.984;2024-02-15T07:59:14;31.90;;;15.77;;
65189;SDS011;51777;53.570;9.984;2024-02-15T08:01:44;26.42;;;13.95;;
65189;SDS011;51777;53.570;9.984;2024-02-15T08:04:12;35.83;;;15.73;;
65189;SDS011;51777;53.570;9.984;2024-02-15T08:06:38;30.30;;;14.63;;
65189;SDS011;51777;53.570;9.984;2024-02-15T08:09:03;31.40;;;15.35;;
65189;SDS011;51777;53.570;9.984;2024-02-15T08:11:30;27.20;;;14.18;;
65189;SDS011;51777;53.570;9.984;2024-02-15T08:13:55;27.38;;;12.07;;
65189;SDS011;51777;53.570;9.984;2024-02-15T08:16:24;31.45;;;15.43;;
65189;SDS011;51777;53.570;9.984;2024-02-15T08:18:53;31.85;;;15.40;;
65189;SDS011;51777;53.570;9.984;2024-02-15T08:21:25;31.55;;;15.02;;
65189;SDS011;51777;53.570;9.984;2024-02-15T08:23:57;30.00;;;14.75;;
65189;SDS011;51777;53.570;9.984;2024-02-15T08:26:23;23.08;;;12.05;;
65189;SDS011;51777;53.570;9.984;2024-02-15T08:28:49;28.52;;;13.68;;
65189;SDS011;51777;53.570;9.984;2024-02-15T08:31:16;26.17;;;13.95;;
65189;SDS011;51777;53.570;9.984;2024-02-15T08:33:41;28.45;;;14.88;;
65189;SDS011;51777;53.570;9.984;2024-02-15T08:36:08;28.55;;;14.20;;
65189;SDS011;51777;53.570;9.984;2024-02-15T08:38:35;29.58;;;13.63;;
65189;SDS011;51777;53.570;9.984;2024-02-15T08:41:04;25.20;;;13.35;;
65189;SDS011;51777;53.570;9.984;2024-02-15T08:43:31;22.92;;;12.90;;
65189;SDS011;51777;53.570;9.984;2024-02-15T08:45:57;22.00;;;12.07;;
65189;SDS011;51777;53.570;9.984;2024-02-15T08:48:23;20.67;;;11.52;;
65189;SDS011;51777;53.570;9.984;2024-02-15T08:50:49;18.48;;;10.18;;
65189;SDS011;51777;53.570;9.984;2024-02-15T08:53:14;15.93;;;10.43;;
65189;SDS011;51777;53.570;9.984;2024-02-15T08:55:40;13.82;;;7.95;;
65189;SDS011;51777;53.570;9.984;2024-02-15T08:58:06;14.00;;;8.48;;
65189;SDS011;51777;53.570;9.984;2024-02-15T09:00:31;14.75;;;8.50;;
65189;SDS011;51777;53.570;9.984;2024-02-15T09:02:57;12.57;;;7.68;;
65189;SDS011;51777;53.570;9.984;2024-02-15T09:05:23;12.55;;;7.88;;
65189;SDS011;51777;53.570;9.984;2024-02-15T09:07:49;11.77;;;7.10;;
65189;SDS011;51777;53.570;9.984;2024-02-15T09:10:17;14.75;;;8.43;;
65189;SDS011;51777;53.570;9.984;2024-02-15T09:12:43;14.07;;;8.45;;
65189;SDS011;51777;53.570;9.984;2024-02-15T09:15:12;11.23;;;7.70;;
65189;SDS011;51777;53.570;9.984;2024-02-15T09:17:39;14.40;;;9.13;;
65189;SDS011;51777;53.570;9.984;2024-02-15T09:20:09;12.43;;;8.20;;
65189;SDS011;51777;53.570;9.984;2024-02-15T09:22:47;14.38;;;8.82;;
65189;SDS011;51777;53.570;9.984;2024-02-15T09:25:13;14.88;;;8.63;;
65189;SDS011;51777;53.570;9.984;2024-02-15T09:27:39;14.55;;;9.25;;
65189;SDS011;51777;53.570;9.984;2024-02-15T09:30:05;19.95;;;9.38;;
65189;SDS011;51777;53.570;9.984;2024-02-15T09:32:35;14.38;;;8.70;;
65189;SDS011;51777;53.570;9.984;2024-02-15T09:35:04;15.30;;;9.32;;
65189;SDS011;51777;53.570;9.984;2024-02-15T09:37:33;14.55;;;9.25;;
65189;SDS011;51777;53.570;9.984;2024-02-15T09:40:04;12.40;;;8.65;;
65189;SDS011;51777;53.570;9.984;2024-02-15T09:42:34;16.70;;;9.23;;
65189;SDS011;51777;53.570;9.984;2024-02-15T09:45:02;17.75;;;10.15;;
65189;SDS011;51777;53.570;9.984;2024-02-15T09:47:34;22.42;;;10.35;;
65189;SDS011;51777;53.570;9.984;2024-02-15T09:50:08;21.17;;;11.20;;
65189;SDS011;51777;53.570;9.984;2024-02-15T09:52:44;23.73;;;10.43;;
65189;SDS011;51777;53.570;9.984;2024-02-15T09:55:14;19.73;;;10.85;;
65189;SDS011;51777;53.570;9.984;2024-02-15T09:57:45;14.38;;;10.25;;
65189;SDS011;51777;53.570;9.984;2024-02-15T10:00:11;18.60;;;10.57;;
65189;SDS011;51777;53.570;9.984;2024-02-15T10:02:42;15.77;;;10.35;;
65189;SDS011;51777;53.570;9.984;2024-02-15T10:05:12;16.83;;;11.00;;
65189;SDS011;51777;53.570;9.984;2024-02-15T10:07:42;16.50;;;10.75;;
65189;SDS011;51777;53.570;9.984;2024-02-15T10:12:42;19.77;;;11.73;;
65189;SDS011;51777;53.570;9.984;2024-02-15T10:15:35;16.92;;;11.45;;
65189;SDS011;51777;53.570;9.984;2024-02-15T10:18:05;17.65;;;10.35;;
65189;SDS011;51777;53.570;9.984;2024-02-15T10:20:40;20.88;;;11.85;;
65189;SDS011;51777;53.570;9.984;2024-02-15T10:26:19;27.15;;;12.43;;
65189;SDS011;51777;53.570;9.984;2024-02-15T10:28:48;20.48;;;12.27;;
65189;SDS011;51777;53.570;9.984;2024-02-15T10:31:36;23.58;;;12.15;;
65189;SDS011;51777;53.570;9.984;2024-02-15T10:34:06;23.52;;;12.60;;
65189;SDS011;51777;53.570;9.984;2024-02-15T10:36:33;24.08;;;12.90;;
65189;SDS011;51777;53.570;9.984;2024-02-15T10:39:17;25.73;;;12.90;;
65189;SDS011;51777;53.570;9.984;2024-02-15T10:41:51;21.90;;;13.13;;
65189;SDS011;51777;53.570;9.984;2024-02-15T10:44:22;19.45;;;12.52;;
65189;SDS011;51777;53.570;9.984;2024-02-15T10:46:49;23.77;;;13.20;;
65189;SDS011;51777;53.570;9.984;2024-02-15T10:49:18;27.75;;;13.70;;
65189;SDS011;51777;53.570;9.984;2024-02-15T10:51:48;23.77;;;14.15;;
65189;SDS011;51777;53.570;9.984;2024-02-15T10:54:24;22.98;;;13.60;;
65189;SDS011;51777;53.570;9.984;2024-02-15T10:57:06;24.95;;;13.70;;
65189;SDS011;51777;53.570;9.984;2024-02-15T10:59:35;21.33;;;13.32;;
65189;SDS011;51777;53.570;9.984;2024-02-15T11:02:03;23.23;;;13.73;;
65189;SDS011;51777;53.570;9.984;2024-02-15T11:04:45;25.60;;;13.60;;
65189;SDS011;51777;53.570;9.984;2024-02-15T11:07:21;20.15;;;13.75;;
65189;SDS011;51777;53.570;9.984;2024-02-15T11:09:50;28.02;;;15.45;;
65189;SDS011;51777;53.570;9.984;2024-02-15T11:12:16;33.30;;;16.70;;
65189;SDS011;51777;53.570;9.984;2024-02-15T11:14:46;32.22;;;16.17;;
65189;SDS011;51777;53.570;9.984;2024-02-15T11:17:11;29.92;;;16.00;;
65189;SDS011;51777;53.570;9.984;2024-02-15T11:20:09;25.50;;;15.57;;
65189;SDS011;51777;53.570;9.984;2024-02-15T11:22:37;32.13;;;18.13;;
65189;SDS011;51777;53.570;9.984;2024-02-15T11:25:06;27.00;;;16.20;;
65189;SDS011;51777;53.570;9.984;2024-02-15T11:27:34;37.67;;;17.90;;
65189;SDS011;51777;53.570;9.984;2024-02-15T11:30:02;29.92;;;16.35;;
65189;SDS011;51777;53.570;9.984;2024-02-15T11:32:41;30.02;;;17.02;;
65189;SDS011;51777;53.570;9.984;2024-02-15T11:35:18;29.27;;;17.23;;
65189;SDS011;51777;53.570;9.984;2024-02-15T11:40:20;31.95;;;17.42;;
65189;SDS011;51777;53.570;9.984;2024-02-15T11:42:59;28.73;;;16.95;;
65189;SDS011;51777;53.570;9.984;2024-02-15T11:45:28;33.35;;;17.73;;
65189;SDS011;51777;53.570;9.984;2024-02-15T11:48:09;30.23;;;17.83;;
65189;SDS011;51777;53.570;9.984;2024-02-15T11:50:38;29.75;;;18.02;;
65189;SDS011;51777;53.570;9.984;2024-02-15T11:53:05;34.55;;;20.33;;
65189;SDS011;51777;53.570;9.984;2024-02-15T11:55:35;31.85;;;18.40;;
65189;SDS011;51777;53.570;9.984;2024-02-15T11:58:03;32.88;;;17.42;;
65189;SDS011;51777;53.570;9.984;2024-02-15T12:00:34;31.98;;;18.63;;
65189;SDS011;51777;53.570;9.984;2024-02-15T12:06:04;37.05;;;17.98;;
65189;SDS011;51777;53.570;9.984;2024-02-15T12:08:50;33.33;;;18.58;;
65189;SDS011;51777;53.570;9.984;2024-02-15T12:11:35;32.97;;;20.15;;
65189;SDS011;51777;53.570;9.984;2024-02-15T12:14:19;33.97;;;20.83;;
65189;SDS011;51777;53.570;9.984;2024-02-15T12:17:08;35.45;;;19.85;;
65189;SDS011;51777;53.570;9.984;2024-02-15T12:19:54;32.22;;;17.30;;
65189;SDS011;51777;53.570;9.984;2024-02-15T12:22:32;31.23;;;18.63;;
65189;SDS011;51777;53.570;9.984;2024-02-15T12:25:01;32.58;;;18.65;;
65189;SDS011;51777;53.570;9.984;2024-02-15T12:27:33;33.97;;;18.48;;
65189;SDS011;51777;53.570;9.984;2024-02-15T12:29:59;31.75;;;18.35;;
65189;SDS011;51777;53.570;9.984;2024-02-15T12:32:26;34.58;;;17.98;;
65189;SDS011;51777;53.570;9.984;2024-02-15T12:34:53;26.42;;;15.00;;
65189;SDS011;51777;53.570;9.984;2024-02-15T12:37:36;29.50;;;16.35;;
65189;SDS011;51777;53.570;9.984;2024-02-15T12:40:12;26.20;;;14.77;;
65189;SDS011;51777;53.570;9.984;2024-02-15T12:42:45;22.27;;;13.98;;
65189;SDS011;51777;53.570;9.984;2024-02-15T12:45:20;20.27;;;13.52;;
65189;SDS011;51777;53.570;9.984;2024-02-15T12:47:53;18.50;;;12.43;;
65189;SDS011;51777;53.570;9.984;2024-02-15T12:50:23;22.75;;;12.18;;
65189;SDS011;51777;53.570;9.984;2024-02-15T12:52:50;17.30;;;11.63;;
65189;SDS011;51777;53.570;9.984;2024-02-15T12:55:20;19.17;;;11.23;;
65189;SDS011;51777;53.570;9.984;2024-02-15T12:57:53;13.95;;;9.60;;
65189;SDS011;51777;53.570;9.984;2024-02-15T13:00:23;14.55;;;9.77;;
65189;SDS011;51777;53.570;9.984;2024-02-15T13:03:01;13.30;;;8.75;;
65189;SDS011;51777;53.570;9.984;2024-02-15T13:05:29;13.48;;;9.07;;
65189;SDS011;51777;53.570;9.984;2024-02-15T13:10:32;10.93;;;7.63;;
65189;SDS011;51777;53.570;9.984;2024-02-15T13:12:58;16.27;;;7.63;;
65189;SDS011;51777;53.570;9.984;2024-02-15T13:15:24;12.00;;;7.38;;
65189;SDS011;51777;53.570;9.984;2024-02-15T13:17:57;9.13;;;7.07;;
65189;SDS011;51777;53.570;9.984;2024-02-15T13:20:23;11.63;;;7.20;;
65189;SDS011;51777;53.570;9.984;2024-02-15T13:23:02;9.52;;;6.68;;
65189;SDS011;51777;53.570;9.984;2024-02-15T13:25:37;8.55;;;6.25;;
65189;SDS011;51777;53.570;9.984;2024-02-15T13:28:05;9.45;;;5.70;;
65189;SDS011;51777;53.570;9.984;2024-02-15T13:30:31;12.30;;;6.72;;
65189;SDS011;51777;53.570;9.984;2024-02-15T13:33:01;10.07;;;6.38;;
65189;SDS011;51777;53.570;9.984;2024-02-15T13:35:27;12.32;;;6.55;;
65189;SDS011;51777;53.570;9.984;2024-02-15T13:37:53;9.02;;;6.28;;
65189;SDS011;51777;53.570;9.984;2024-02-15T13:40:21;11.73;;;6.80;;
65189;SDS011;51777;53.570;9.984;2024-02-15T13:42:54;8.60;;;6.43;;
65189;SDS011;51777;53.570;9.984;2024-02-15T13:45:23;11.80;;;6.70;;
65189;SDS011;51777;53.570;9.984;2024-02-15T13:48:09;9.27;;;6.55;;
65189;SDS011;51777;53.570;9.984;2024-02-15T13:50:38;6.68;;;5.03;;
65189;SDS011;51777;53.570;9.984;2024-02-15T13:53:04;12.38;;;6.75;;
65189;SDS011;51777;53.570;9.984;2024-02-15T13:55:30;10.38;;;6.50;;
65189;SDS011;51777;53.570;9.984;2024-02-15T13:57:56;8.65;;;6.43;;
65189;SDS011;51777;53.570;9.984;2024-02-15T14:00:22;11.35;;;6.75;;
65189;SDS011;51777;53.570;9.984;2024-02-15T14:02:51;8.23;;;5.57;;
65189;SDS011;51777;53.570;9.984;2024-02-15T14:05:21;10.35;;;6.30;;
65189;SDS011;51777;53.570;9.984;2024-02-15T14:07:51;10.43;;;7.35;;
65189;SDS011;51777;53.570;9.984;2024-02-15T14:10:20;10.52;;;6.70;;
65189;SDS011;51777;53.570;9.984;2024-02-15T14:12:49;14.13;;;7.70;;
65189;SDS011;51777;53.570;9.984;2024-02-15T14:15:17;9.55;;;7.38;;
65189;SDS011;51777;53.570;9.984;2024-02-15T14:17:44;6.72;;;4.55;;
65189;SDS011;51777;53.570;9.984;2024-02-15T14:20:10;16.73;;;6.60;;
65189;SDS011;51777;53.570;9.984;2024-02-15T14:22:40;13.68;;;7.38;;
65189;SDS011;51777;53.570;9.984;2024-02-15T14:25:10;12.00;;;6.53;;
65189;SDS011;51777;53.570;9.984;2024-02-15T14:27:37;9.05;;;6.45;;
65189;SDS011;51777;53.570;9.984;2024-02-15T14:30:04;9.82;;;6.47;;
65189;SDS011;51777;53.570;9.984;2024-02-15T14:32:49;10.77;;;6.28;;
65189;SDS011;51777;53.570;9.984;2024-02-15T14:35:34;9.90;;;6.10;;
65189;SDS011;51777;53.570;9.984;2024-02-15T14:38:08;14.25;;;6.65;;
65189;SDS011;51777;53.570;9.984;2024-02-15T14:40:36;11.93;;;5.90;;
65189;SDS011;51777;53.570;9.984;2024-02-15T14:43:02;13.30;;;6.72;;
65189;SDS011;51777;53.570;9.984;2024-02-15T14:45:30;11.35;;;6.72;;
65189;SDS011;51777;53.570;9.984;2024-02-15T14:47:58;8.63;;;6.97;;
65189;SDS011;51777;53.570;9.984;2024-02-15T14:50:29;12.88;;;7.05;;
65189;SDS011;51777;53.570;9.984;2024-02-15T14:52:57;9.90;;;6.40;;